Norwegian Star — C6FR3 — position and weather

sailwx.info

Track history (hours):
 
Tides and Currents Weather Stations Pressure Air Temp Water Temp Dewpoint Dewpoint Depression Visibility Wind Speed Wind Dir Waves Ship Positions

Norwegian Star

Operator: Norwegian Cruise Line

Last reported at 2019-May-20 17:01 UTC. Time now 2019-May-20 17:28 UTC.
Position N 36°47' E 023°59'.

Type: Passenger vessel. MMSI: 311082000.

Date/timePositionNaut miles runAvg speedWind from/ knotsBaromVisibWave heightAir tempDewpointWater temp
2019-May-20 17:01N 36°47' E 023°59'1121.1
2019-May-20 16:30N 36°53' E 024°10'1326.1
2019-May-20 16:00N 37°00' E 024°24'2127.5 180 / 121012.010.8 21.0 20.0
2019-May-20 15:59N 36°59' E 024°21'2621.4
2019-May-20 14:47N 37°13' E 024°49'621.3
2019-May-20 14:31N 37°16' E 024°55'1121.1
2019-May-20 14:00N 37°22' E 025°06'1019.6
2019-May-20 13:30N 37°28' E 025°16'3 4.8
2019-May-20 12:56N 37°28' E 025°19'0 0.0
2019-May-20 12:29N 37°28' E 025°19'0 0.0
2019-May-20 11:59N 37°28' E 025°19'0 0.0
2019-May-20 11:29N 37°28' E 025°19'2 4.9
2019-May-20 11:00N 37°30' E 025°18'2220.0 270 / 71015.0
2019-May-20 10:59N 37°28' E 025°19'0 0.0
2019-May-20 10:26N 37°28' E 025°19'0 0.0
2019-May-20 09:59N 37°28' E 025°19'0 0.0
2019-May-20 09:26N 37°28' E 025°19'2 5.4
2019-May-20 09:00N 37°30' E 025°18'2214.5 200 / 101012.0 5.4 21.0
2019-May-20 08:59N 37°28' E 025°19'0 0.0
2019-May-20 08:29N 37°28' E 025°19'0 0.0
2019-May-20 07:56N 37°28' E 025°19'0 0.0
2019-May-20 07:26N 37°28' E 025°19'2 5.4
2019-May-20 07:00N 37°30' E 025°18'2220.0 180 / 101010.0 5.4 21.0
2019-May-20 06:59N 37°28' E 025°19'0 0.0
2019-May-20 06:26N 37°28' E 025°19'0 0.0
2019-May-20 05:59N 37°28' E 025°19'0 0.0
2019-May-20 05:29N 37°28' E 025°19'2 4.9
2019-May-20 05:00N 37°30' E 025°18'2214.5 200 / 91011.010.8 20.2 19.0
2019-May-20 04:59N 37°28' E 025°19'0 0.0
2019-May-20 04:29N 37°28' E 025°19'0 0.0
2019-May-20 03:59N 37°28' E 025°19'0 0.0
2019-May-20 03:30N 37°28' E 025°19'4 7.0
2019-May-20 03:00N 37°28' E 025°15'4 8.9
2019-May-20 02:30N 37°30' E 025°10'4 8.3
2019-May-20 02:00N 37°31' E 025°05'6 8.5
2019-May-20 01:18N 37°32' E 024°57'5 8.9
2019-May-20 00:48N 37°33' E 024°51'3 9.5
2019-May-20 00:30N 37°33' E 024°48'34 8.5
2019-May-19 20:28N 37°32' E 024°05'6 8.7
2019-May-19 19:43N 37°34' E 023°57'2 8.6
2019-May-19 19:26N 37°35' E 023°54'4 8.6
2019-May-19 19:00N 37°36' E 023°50'4 8.6
2019-May-19 18:30N 37°37' E 023°45'4 8.0
2019-May-19 18:00N 37°41' E 023°42'4 8.6
2019-May-19 17:30N 37°45' E 023°39'4 8.6
2019-May-19 17:00N 37°49' E 023°37'4 8.5
2019-May-19 16:30N 37°53' E 023°36'4 7.2
2019-May-19 16:00N 37°56' E 023°37'1 1.1
2019-May-19 15:28N 37°56' E 023°38'3 6.3
2019-May-19 15:00N 37°54' E 023°36'337.6 150 / 41011.010.8 21.7 19.8
2019-May-19 14:55N 37°56' E 023°38'0 0.0
2019-May-19 14:25N 37°56' E 023°38'0 0.0
2019-May-19 13:58N 37°56' E 023°38'0 0.0
2019-May-19 13:28N 37°56' E 023°38'0 0.0
2019-May-19 12:58N 37°56' E 023°38'0 0.0
2019-May-19 12:28N 37°56' E 023°38'0 0.0
2019-May-19 11:58N 37°56' E 023°38'0 0.0
2019-May-19 11:28N 37°56' E 023°38'3 6.3
2019-May-19 11:00N 37°54' E 023°36'3103.6 150 / 101012.0
2019-May-19 10:58N 37°56' E 023°38'0 0.0
2019-May-19 10:28N 37°56' E 023°38'0 0.0
2019-May-19 09:55N 37°56' E 023°38'0 0.0
2019-May-19 09:28N 37°56' E 023°38'3 6.3
2019-May-19 09:00N 37°54' E 023°36'3104.6 170 / 101009.0 5.4 21.0
2019-May-19 08:58N 37°56' E 023°38'0 0.0
2019-May-19 08:28N 37°56' E 023°38'0 0.0
2019-May-19 07:55N 37°56' E 023°38'0 0.0
2019-May-19 07:28N 37°56' E 023°38'3 6.3
2019-May-19 07:00N 37°54' E 023°36'3102.7 100 / 121010.0 5.4 21.0
2019-May-19 06:58N 37°56' E 023°38'0 0.0
2019-May-19 06:28N 37°56' E 023°38'0 0.0
2019-May-19 05:58N 37°56' E 023°38'0 0.0
2019-May-19 05:28N 37°56' E 023°38'0 0.0
2019-May-19 04:55N 37°56' E 023°38'0 0.0
2019-May-19 04:28N 37°56' E 023°38'0 0.0
2019-May-19 03:58N 37°56' E 023°38'0 0.0
2019-May-19 03:30N 37°56' E 023°38'1 2.4
2019-May-19 03:00N 37°56' E 023°37'611.1
2019-May-19 02:30N 37°51' E 023°40'918.2
2019-May-19 02:00N 37°43' E 023°44'1121.2
2019-May-19 01:30N 37°33' E 023°49'1020.5
2019-May-19 01:00N 37°23' E 023°54'1019.2
2019-May-19 00:30N 37°14' E 023°58'1019.4
2019-May-19 00:00N 37°05' E 024°00'1020.0
2019-May-18 23:30N 36°55' E 024°04'1019.8
2019-May-18 23:00N 36°46' E 024°07'2323.1
2019-May-18 22:00N 36°24' E 024°18'53 8.9 260 / 121009.0 5.4 18.0
2019-May-18 16:00N 36°24' E 025°24'0 0.0 180 / 61012.010.8 20.7 20.3
2019-May-18 15:00N 36°24' E 025°24'0 0.0 180 / 61012.010.8 20.7 20.3
2019-May-18 14:00N 36°24' E 025°24'2453613.3 180 / 61013.010.8 21.1 20.3
2019-May-18 10:00N 36°24' W 025°24'2429809.7 260 / 61013.0
2019-May-18 07:00N 36°24' E 024°54'7715.5 230 / 71013.0
2019-May-18 02:00N 36°24' E 023°18'3919.6 330 / 121011.010.8 16.8 18.0
2019-May-18 00:00N 36°18' E 022°30'1514.5 360 / 111011.0
2019-May-17 23:00N 36°18' E 022°12'1615.7 340 / 211011.0
2019-May-17 22:00N 36°24' E 021°54'3617.9 350 / 141009.0 5.4 18.0
2019-May-17 20:00N 36°36' E 021°12'7017.4 350 / 141009.0 5.4 18.0
2019-May-17 16:00N 36°54' E 019°48'2929.4 1012.010.8 20.5 18.0
2019-May-17 15:00N 37°00' E 019°12'6020.0 1011.510.8 19.8 18.0
2019-May-17 12:00N 37°18' E 018°00'3433.9 020 / 121012.0
2019-May-17 11:00N 37°24' E 017°18'5417.9 010 / 151008.0 5.4 18.0
2019-May-17 07:59N 37°42' E 016°14'1521.5
2019-May-17 07:16N 37°46' E 015°55'621.3
2019-May-17 07:00N 37°48' E 015°49'1321.0
2019-May-17 06:23N 37°55' E 015°35'821.6
2019-May-17 06:00N 38°03' E 015°35'1019.6
2019-May-17 05:30N 38°13' E 015°36'714.5
2019-May-17 05:00N 38°20' E 015°39'510.3
2019-May-17 04:30N 38°25' E 015°37'611.7
2019-May-17 04:00N 38°30' E 015°34'2125.4
2019-May-17 04:00N 38°30' E 015°36'715.4 240 / 181011.010.8 15.9 17.9
2019-May-17 03:30N 38°36' E 015°30'713.1
2019-May-17 03:00N 38°42' E 015°27'713.1
2019-May-17 02:30N 38°48' E 015°24'713.1
2019-May-17 02:00N 38°54' E 015°20'2914.2
2019-May-17 00:00N 39°18' E 015°00'1918.6 080 / 111011.0
2019-May-16 23:00N 39°36' E 014°54'3010.1 050 / 141008.0 5.4 17.0
2019-May-16 20:00N 40°00' E 014°30'49 6.1 050 / 201008.0 5.4 18.0
2019-May-16 12:00N 40°48' E 014°18'3 1.4 020 / 251010.0
2019-May-16 10:02N 40°50' E 014°16'366.4
2019-May-16 10:00N 40°48' E 014°18'3348.0 030 / 301006.0 5.4 17.0
2019-May-16 09:59N 40°50' E 014°16'0 0.0
2019-May-16 09:29N 40°50' E 014°16'0 0.0
2019-May-16 08:59N 40°50' E 014°16'0 0.0
2019-May-16 08:26N 40°50' E 014°16'3 6.3
2019-May-16 08:00N 40°48' E 014°18'3348.0 030 / 201007.0 5.4 16.0
2019-May-16 07:59N 40°50' E 014°16'0 0.0
2019-May-16 07:29N 40°50' E 014°16'0 0.0
2019-May-16 06:59N 40°50' E 014°16'0 0.0
2019-May-16 06:29N 40°50' E 014°16'0 0.0
2019-May-16 05:59N 40°50' E 014°16'0 0.4
2019-May-16 05:30N 40°50' E 014°16'2 4.0
2019-May-16 05:00N 40°48' E 014°17'612.8
2019-May-16 04:30N 40°43' E 014°13'816.3
2019-May-16 04:01N 40°38' E 014°04'917.3
2019-May-16 03:31N 40°37' E 013°53'917.2
2019-May-16 03:01N 40°38' E 013°42'2103.5
2019-May-16 03:00N 40°36' E 013°42'919.0 090 / 221009.010.8 15.0 17.6
2019-May-16 02:30N 40°39' E 013°30'3815.0
2019-May-16 00:00N 40°48' E 012°42'2625.5 080 / 451006.0
2019-May-15 23:00N 41°06' E 012°18'6410.7 090 / 401004.0 2.2 13.0
2019-May-15 17:00N 42°06' E 011°48'0 0.0 030 / 91011.010.8 13.4 16.2
2019-May-15 16:00N 42°06' E 011°48'0 0.0 050 / 121011.010.8 12.9 16.2
2019-May-15 11:00N 42°06' E 011°48'0 0.0 300 / 71012.0
2019-May-15 10:00N 42°06' E 011°48'0 0.0 050 / 101009.0 2.2 12.0
2019-May-15 08:00N 42°06' E 011°48'59 7.4 050 / 71009.0 5.4 12.0
2019-May-15 00:00N 42°18' E 010°30'2222.4 030 / 411014.0
2019-May-14 23:00N 42°36' E 010°12'1811.2 050 / 251013.0 5.4 15.0
2019-May-14 21:24N 42°53' E 010°03'614.4
2019-May-14 21:00N 42°58' E 010°04'4284.3
2019-May-14 21:00N 42°54' E 010°06'1225.0 100 / 151013.0 5.4 15.0
2019-May-14 20:30N 43°06' E 010°06'816.1
2019-May-14 20:00N 43°14' E 010°08'816.2
2019-May-14 19:30N 43°22' E 010°10'816.0
2019-May-14 19:00N 43°30' E 010°11'510.2
2019-May-14 18:30N 43°32' E 010°17'1 1.5
2019-May-14 17:58N 43°33' E 010°18'0 0.0
2019-May-14 17:28N 43°33' E 010°18'8951865.1
2019-May-14 17:00N 43°36' W 010°18'89543553.4 080 / 231015.010.8 17.3 17.2
2019-May-14 16:58N 43°33' E 010°18'0 0.0
2019-May-14 16:28N 43°33' E 010°18'3 5.7
2019-May-14 16:00N 43°36' E 010°18'3135.7 080 / 211015.010.8 18.3 17.2
2019-May-14 15:58N 43°33' E 010°18'0 0.0
2019-May-14 15:28N 43°33' E 010°18'0 0.0
2019-May-14 14:58N 43°33' E 010°18'0 0.0
2019-May-14 14:28N 43°33' E 010°18'0 0.0
2019-May-14 13:58N 43°33' E 010°18'0 0.0
2019-May-14 13:28N 43°33' E 010°18'0 0.0
2019-May-14 12:58N 43°33' E 010°18'0 0.0
2019-May-14 12:28N 43°33' E 010°18'3 5.7
2019-May-14 12:00N 43°36' E 010°18'3137.6 030 / 121016.0
2019-May-14 11:58N 43°33' E 010°18'0 0.0
2019-May-14 11:28N 43°33' E 010°18'3 5.7
2019-May-14 11:00N 43°36' E 010°18'3137.6 080 / 181013.0 5.4 19.0
2019-May-14 10:58N 43°33' E 010°18'0 0.0
2019-May-14 10:28N 43°33' E 010°18'0 0.0
2019-May-14 09:58N 43°33' E 010°18'0 0.0
2019-May-14 09:28N 43°33' E 010°18'0 0.0
2019-May-14 08:58N 43°33' E 010°18'0 0.0
2019-May-14 08:28N 43°33' E 010°18'0 0.0
2019-May-14 07:58N 43°33' E 010°18'0 0.0
2019-May-14 07:28N 43°33' E 010°18'0 0.0
2019-May-14 06:58N 43°33' E 010°18'0 0.0
2019-May-14 06:28N 43°33' E 010°18'0 0.0
2019-May-14 05:58N 43°33' E 010°18'0 0.0
2019-May-14 05:28N 43°33' E 010°18'0 0.0
2019-May-14 04:59N 43°33' E 010°18'2 3.9
2019-May-14 04:30N 43°32' E 010°16'4 7.9
2019-May-14 04:01N 43°30' E 010°11'510.9
2019-May-14 03:30N 43°30' E 010°04'713.2
2019-May-14 03:01N 43°31' E 009°55'713.7
2019-May-14 02:30N 43°31' E 009°45'713.8
2019-May-14 02:00N 43°31' E 009°36'713.9
2019-May-14 01:31N 43°31' E 009°26'714.4
2019-May-14 01:01N 43°31' E 009°16'714.2
2019-May-14 00:31N 43°30' E 009°07'714.3
2019-May-14 00:01N 43°30' E 008°57'2119.0
2019-May-14 00:00N 43°30' E 008°54'510.6 050 / 151017.0
2019-May-13 23:30N 43°30' E 008°47'714.4
2019-May-13 23:00N 43°30' E 008°37'5319.2
2019-May-13 23:00N 43°30' E 008°30'2 4.4 080 / 251014.0 5.4 17.0
2019-May-13 22:30N 43°29' E 008°27'714.6
2019-May-13 22:00N 43°29' E 008°17'714.4
2019-May-13 21:30N 43°29' E 008°07'815.1
2019-May-13 21:00N 43°29' E 007°57'714.9
2019-May-13 20:30N 43°28' E 007°47'714.8
2019-May-13 20:00N 43°28' E 007°36'5304.3
2019-May-13 20:00N 43°30' E 007°30'4 7.2 330 / 351016.0 5.4 18.0
2019-May-13 19:30N 43°28' E 007°26'714.9
2019-May-13 19:00N 43°28' E 007°16'715.0
2019-May-13 18:30N 43°28' E 007°05'5 9.9
2019-May-13 18:00N 43°32' E 007°01'0 0.6
2019-May-13 17:30N 43°32' E 007°01'0 0.0
2019-May-13 17:00N 43°32' E 007°01'0 0.0
2019-May-13 16:30N 43°32' E 007°01'0 0.0
2019-May-13 16:00N 43°32' E 007°01'0 0.0
2019-May-13 15:30N 43°32' E 007°01'0 0.0
2019-May-13 15:00N 43°32' E 007°01'0 0.0
2019-May-13 14:30N 43°32' E 007°01'0 0.0
2019-May-13 14:00N 43°32' E 007°01'0 0.0
2019-May-13 13:30N 43°32' E 007°01'0 0.0
2019-May-13 13:00N 43°32' E 007°01'0 0.0
2019-May-13 12:30N 43°32' E 007°01'0 0.0
2019-May-13 12:00N 43°32' E 007°01'2227.4
2019-May-13 12:00N 43°30' E 007°00'2 4.1 200 / 201017.0
2019-May-13 11:30N 43°32' E 007°01'0 0.2
2019-May-13 11:00N 43°32' E 007°01'0 0.1
2019-May-13 10:30N 43°32' E 007°01'0 0.1
2019-May-13 10:00N 43°32' E 007°01'2220.9
2019-May-13 10:00N 43°30' E 007°00'2 4.0 180 / 121014.0 5.4 20.0
2019-May-13 09:30N 43°32' E 007°01'0 0.0
2019-May-13 08:57N 43°32' E 007°01'0 0.0
2019-May-13 08:30N 43°32' E 007°01'1 1.4
2019-May-13 08:00N 43°31' E 007°01'714.2
2019-May-13 07:31N 43°24' E 006°57'1020.7
2019-May-13 07:00N 43°15' E 006°52'1020.4
2019-May-13 06:30N 43°05' E 006°47'1020.7
2019-May-13 06:00N 42°58' E 006°37'6320.9
2019-May-13 03:00N 42°48' E 005°12'7518.7 350 / 501016.010.8 13.3 13.0
2019-May-12 23:00N 42°24' E 003°36'4615.2 350 / 551016.0 5.4 16.0
2019-May-12 20:00N 41°42' E 003°12'1370.1 1018.0 5.4 15.0
2019-May-12 19:49N 41°31' E 003°04'721.8
2019-May-12 19:30N 41°26' E 002°57'1121.3
2019-May-12 19:00N 41°20' E 002°46'1122.1
2019-May-12 18:30N 41°12' E 002°36'2922.6
2019-May-12 17:15N 41°04' E 001°59'623.4
2019-May-12 17:00N 41°04' E 001°52'1223.7
2019-May-12 16:30N 41°04' E 001°36'18 4.1
2019-May-12 12:00N 41°06' E 001°12'0 0.0 250 / 101022.0
2019-May-12 10:00N 41°06' E 001°12'10954.3 290 / 181021.0 5.4 20.0
2019-May-12 08:00N 41°06' W 001°12'0 0.0 300 / 201022.0 5.4 18.0
2019-May-12 05:00N 41°06' W 001°12'12625.2 330 / 181023.010.8 17.5 17.8
2019-May-12 00:00N 40°36' E 001°30'1312.8 280 / 281024.0
2019-May-11 23:00N 40°24' E 001°36'4615.3 100 / 121021.0 5.4 17.0
2019-May-11 20:00N 39°42' E 002°00'1711.6 080 / 201018.0 5.4 18.0
2019-May-11 18:32N 39°30' E 002°15'115.0
2019-May-11 18:26N 39°28' E 002°16'615.0
2019-May-11 18:00N 39°25' E 002°23'713.5
2019-May-11 17:31N 39°25' E 002°32'815.0
2019-May-11 17:00N 39°31' E 002°38'2 4.5
2019-May-11 16:30N 39°33' E 002°38'0 0.2
2019-May-11 15:55N 39°33' E 002°38'0 0.0
2019-May-11 15:25N 39°33' E 002°38'0 0.0
2019-May-11 14:55N 39°33' E 002°38'0 0.0
2019-May-11 14:25N 39°33' E 002°38'0 0.0
2019-May-11 13:55N 39°33' E 002°38'0 0.0
2019-May-11 13:25N 39°33' E 002°38'0 0.0
2019-May-11 12:55N 39°33' E 002°38'0 0.0
2019-May-11 12:25N 39°33' E 002°38'3 7.2
2019-May-11 12:00N 39°30' E 002°36'338.9 210 / 141018.0
2019-May-11 11:55N 39°33' E 002°38'0 0.0
2019-May-11 11:25N 39°33' E 002°38'0 0.0
2019-May-11 10:55N 39°33' E 002°38'0 0.0
2019-May-11 10:25N 39°33' E 002°38'3 7.2
2019-May-11 10:00N 39°30' E 002°36'338.9 200 / 91018.0 5.4 22.0
2019-May-11 09:55N 39°33' E 002°38'0 0.0
2019-May-11 09:25N 39°33' E 002°38'0 0.0
2019-May-11 08:55N 39°33' E 002°38'0 0.0
2019-May-11 08:25N 39°33' E 002°38'3 7.3
2019-May-11 08:00N 39°30' E 002°36'339.1 020 / 71017.0 5.4 21.0
2019-May-11 07:55N 39°33' E 002°38'0 0.4
2019-May-11 07:30N 39°33' E 002°38'1 2.8
2019-May-11 07:00N 39°32' E 002°39'713.1
2019-May-11 06:30N 39°26' E 002°35'714.8
2019-May-11 06:00N 39°20' E 002°29'714.6
2019-May-11 05:30N 39°14' E 002°24'815.7
2019-May-11 05:00N 39°07' E 002°19'1115.9
2019-May-11 04:17N 38°58' E 002°11'412.9
2019-May-11 04:00N 38°54' E 002°12'4100.7 190 / 71016.010.8 18.5 18.7
2019-May-11 03:57N 38°53' E 002°07'916.2
2019-May-11 03:24N 38°46' E 002°01'4016.6
2019-May-11 01:00N 38°18' E 001°24'3517.6 180 / 141015.0
2019-May-10 23:00N 38°06' E 000°42'4514.9 350 / 71016.0 5.4 19.0
2019-May-10 20:00N 37°42' W 000°06'   200 / 101015.0 5.4 20.0
Track history (hours):
 
Tides and Currents Weather Stations Pressure Air Temp Water Temp Dewpoint Dewpoint Depression Visibility Wind Speed Wind Dir Waves Ship Positions

Norwegian Star

Operator: Norwegian Cruise Line

Last reported at 2019-May-20 17:01 UTC. Time now 2019-May-20 17:28 UTC.
Position N 36°47' E 023°59'.

Type: Passenger vessel. MMSI: 311082000.

Date/timePositionNaut miles runAvg speedWind from/ knotsBaromVisibWave heightAir tempDewpointWater temp
2019-May-20 17:01N 36°47' E 023°59'1121.1
2019-May-20 16:30N 36°53' E 024°10'1326.1
2019-May-20 16:00N 37°00' E 024°24'2127.5 180 / 121012.010.8 21.0 20.0
2019-May-20 15:59N 36°59' E 024°21'2621.4
2019-May-20 14:47N 37°13' E 024°49'621.3
2019-May-20 14:31N 37°16' E 024°55'1121.1
2019-May-20 14:00N 37°22' E 025°06'1019.6
2019-May-20 13:30N 37°28' E 025°16'3 4.8
2019-May-20 12:56N 37°28' E 025°19'0 0.0
2019-May-20 12:29N 37°28' E 025°19'0 0.0
2019-May-20 11:59N 37°28' E 025°19'0 0.0
2019-May-20 11:29N 37°28' E 025°19'2 4.9
2019-May-20 11:00N 37°30' E 025°18'2220.0 270 / 71015.0
2019-May-20 10:59N 37°28' E 025°19'0 0.0
2019-May-20 10:26N 37°28' E 025°19'0 0.0
2019-May-20 09:59N 37°28' E 025°19'0 0.0
2019-May-20 09:26N 37°28' E 025°19'2 5.4
2019-May-20 09:00N 37°30' E 025°18'2214.5 200 / 101012.0 5.4 21.0
2019-May-20 08:59N 37°28' E 025°19'0 0.0
2019-May-20 08:29N 37°28' E 025°19'0 0.0
2019-May-20 07:56N 37°28' E 025°19'0 0.0
2019-May-20 07:26N 37°28' E 025°19'2 5.4
2019-May-20 07:00N 37°30' E 025°18'2220.0 180 / 101010.0 5.4 21.0
2019-May-20 06:59N 37°28' E 025°19'0 0.0
2019-May-20 06:26N 37°28' E 025°19'0 0.0
2019-May-20 05:59N 37°28' E 025°19'0 0.0
2019-May-20 05:29N 37°28' E 025°19'2 4.9
2019-May-20 05:00N 37°30' E 025°18'2214.5 200 / 91011.010.8 20.2 19.0
2019-May-20 04:59N 37°28' E 025°19'0 0.0
2019-May-20 04:29N 37°28' E 025°19'0 0.0
2019-May-20 03:59N 37°28' E 025°19'0 0.0
2019-May-20 03:30N 37°28' E 025°19'4 7.0
2019-May-20 03:00N 37°28' E 025°15'4 8.9
2019-May-20 02:30N 37°30' E 025°10'4 8.3
2019-May-20 02:00N 37°31' E 025°05'6 8.5
2019-May-20 01:18N 37°32' E 024°57'5 8.9
2019-May-20 00:48N 37°33' E 024°51'3 9.5
2019-May-20 00:30N 37°33' E 024°48'34 8.5
2019-May-19 20:28N 37°32' E 024°05'6 8.7
2019-May-19 19:43N 37°34' E 023°57'2 8.6
2019-May-19 19:26N 37°35' E 023°54'4 8.6
2019-May-19 19:00N 37°36' E 023°50'4 8.6
2019-May-19 18:30N 37°37' E 023°45'4 8.0
2019-May-19 18:00N 37°41' E 023°42'4 8.6
2019-May-19 17:30N 37°45' E 023°39'4 8.6
2019-May-19 17:00N 37°49' E 023°37'4 8.5
2019-May-19 16:30N 37°53' E 023°36'4 7.2
2019-May-19 16:00N 37°56' E 023°37'1 1.1
2019-May-19 15:28N 37°56' E 023°38'3 6.3
2019-May-19 15:00N 37°54' E 023°36'337.6 150 / 41011.010.8 21.7 19.8
2019-May-19 14:55N 37°56' E 023°38'0 0.0
2019-May-19 14:25N 37°56' E 023°38'0 0.0
2019-May-19 13:58N 37°56' E 023°38'0 0.0
2019-May-19 13:28N 37°56' E 023°38'0 0.0
2019-May-19 12:58N 37°56' E 023°38'0 0.0
2019-May-19 12:28N 37°56' E 023°38'0 0.0
2019-May-19 11:58N 37°56' E 023°38'0 0.0
2019-May-19 11:28N 37°56' E 023°38'3 6.3
2019-May-19 11:00N 37°54' E 023°36'3103.6 150 / 101012.0
2019-May-19 10:58N 37°56' E 023°38'0 0.0
2019-May-19 10:28N 37°56' E 023°38'0 0.0
2019-May-19 09:55N 37°56' E 023°38'0 0.0
2019-May-19 09:28N 37°56' E 023°38'3 6.3
2019-May-19 09:00N 37°54' E 023°36'3104.6 170 / 101009.0 5.4 21.0
2019-May-19 08:58N 37°56' E 023°38'0 0.0
2019-May-19 08:28N 37°56' E 023°38'0 0.0
2019-May-19 07:55N 37°56' E 023°38'0 0.0
2019-May-19 07:28N 37°56' E 023°38'3 6.3
2019-May-19 07:00N 37°54' E 023°36'3102.7 100 / 121010.0 5.4 21.0
2019-May-19 06:58N 37°56' E 023°38'0 0.0
2019-May-19 06:28N 37°56' E 023°38'0 0.0
2019-May-19 05:58N 37°56' E 023°38'0 0.0
2019-May-19 05:28N 37°56' E 023°38'0 0.0
2019-May-19 04:55N 37°56' E 023°38'0 0.0
2019-May-19 04:28N 37°56' E 023°38'0 0.0
2019-May-19 03:58N 37°56' E 023°38'0 0.0
2019-May-19 03:30N 37°56' E 023°38'1 2.4
2019-May-19 03:00N 37°56' E 023°37'611.1
2019-May-19 02:30N 37°51' E 023°40'918.2
2019-May-19 02:00N 37°43' E 023°44'1121.2
2019-May-19 01:30N 37°33' E 023°49'1020.5
2019-May-19 01:00N 37°23' E 023°54'1019.2
2019-May-19 00:30N 37°14' E 023°58'1019.4
2019-May-19 00:00N 37°05' E 024°00'1020.0
2019-May-18 23:30N 36°55' E 024°04'1019.8
2019-May-18 23:00N 36°46' E 024°07'2323.1
2019-May-18 22:00N 36°24' E 024°18'53 8.9 260 / 121009.0 5.4 18.0
2019-May-18 16:00N 36°24' E 025°24'0 0.0 180 / 61012.010.8 20.7 20.3
2019-May-18 15:00N 36°24' E 025°24'0 0.0 180 / 61012.010.8 20.7 20.3
2019-May-18 14:00N 36°24' E 025°24'2453613.3 180 / 61013.010.8 21.1 20.3
2019-May-18 10:00N 36°24' W 025°24'2429809.7 260 / 61013.0
2019-May-18 07:00N 36°24' E 024°54'7715.5 230 / 71013.0
2019-May-18 02:00N 36°24' E 023°18'3919.6 330 / 121011.010.8 16.8 18.0
2019-May-18 00:00N 36°18' E 022°30'1514.5 360 / 111011.0
2019-May-17 23:00N 36°18' E 022°12'1615.7 340 / 211011.0
2019-May-17 22:00N 36°24' E 021°54'3617.9 350 / 141009.0 5.4 18.0
2019-May-17 20:00N 36°36' E 021°12'7017.4 350 / 141009.0 5.4 18.0
2019-May-17 16:00N 36°54' E 019°48'2929.4 1012.010.8 20.5 18.0
2019-May-17 15:00N 37°00' E 019°12'6020.0 1011.510.8 19.8 18.0
2019-May-17 12:00N 37°18' E 018°00'3433.9 020 / 121012.0
2019-May-17 11:00N 37°24' E 017°18'5417.9 010 / 151008.0 5.4 18.0
2019-May-17 07:59N 37°42' E 016°14'1521.5
2019-May-17 07:16N 37°46' E 015°55'621.3
2019-May-17 07:00N 37°48' E 015°49'1321.0
2019-May-17 06:23N 37°55' E 015°35'821.6
2019-May-17 06:00N 38°03' E 015°35'1019.6
2019-May-17 05:30N 38°13' E 015°36'714.5
2019-May-17 05:00N 38°20' E 015°39'510.3
2019-May-17 04:30N 38°25' E 015°37'611.7
2019-May-17 04:00N 38°30' E 015°34'2125.4
2019-May-17 04:00N 38°30' E 015°36'715.4 240 / 181011.010.8 15.9 17.9
2019-May-17 03:30N 38°36' E 015°30'713.1
2019-May-17 03:00N 38°42' E 015°27'713.1
2019-May-17 02:30N 38°48' E 015°24'713.1
2019-May-17 02:00N 38°54' E 015°20'2914.2
2019-May-17 00:00N 39°18' E 015°00'1918.6 080 / 111011.0
2019-May-16 23:00N 39°36' E 014°54'3010.1 050 / 141008.0 5.4 17.0
2019-May-16 20:00N 40°00' E 014°30'49 6.1 050 / 201008.0 5.4 18.0
2019-May-16 12:00N 40°48' E 014°18'3 1.4 020 / 251010.0
2019-May-16 10:02N 40°50' E 014°16'366.4
2019-May-16 10:00N 40°48' E 014°18'3348.0 030 / 301006.0 5.4 17.0
2019-May-16 09:59N 40°50' E 014°16'0 0.0
2019-May-16 09:29N 40°50' E 014°16'0 0.0
2019-May-16 08:59N 40°50' E 014°16'0 0.0
2019-May-16 08:26N 40°50' E 014°16'3 6.3
2019-May-16 08:00N 40°48' E 014°18'3348.0 030 / 201007.0 5.4 16.0
2019-May-16 07:59N 40°50' E 014°16'0 0.0
2019-May-16 07:29N 40°50' E 014°16'0 0.0
2019-May-16 06:59N 40°50' E 014°16'0 0.0
2019-May-16 06:29N 40°50' E 014°16'0 0.0
2019-May-16 05:59N 40°50' E 014°16'0 0.4
2019-May-16 05:30N 40°50' E 014°16'2 4.0
2019-May-16 05:00N 40°48' E 014°17'612.8
2019-May-16 04:30N 40°43' E 014°13'816.3
2019-May-16 04:01N 40°38' E 014°04'917.3
2019-May-16 03:31N 40°37' E 013°53'917.2
2019-May-16 03:01N 40°38' E 013°42'2103.5
2019-May-16 03:00N 40°36' E 013°42'919.0 090 / 221009.010.8 15.0 17.6
2019-May-16 02:30N 40°39' E 013°30'3815.0
2019-May-16 00:00N 40°48' E 012°42'2625.5 080 / 451006.0
2019-May-15 23:00N 41°06' E 012°18'6410.7 090 / 401004.0 2.2 13.0
2019-May-15 17:00N 42°06' E 011°48'0 0.0 030 / 91011.010.8 13.4 16.2
2019-May-15 16:00N 42°06' E 011°48'0 0.0 050 / 121011.010.8 12.9 16.2
2019-May-15 11:00N 42°06' E 011°48'0 0.0 300 / 71012.0
2019-May-15 10:00N 42°06' E 011°48'0 0.0 050 / 101009.0 2.2 12.0
2019-May-15 08:00N 42°06' E 011°48'59 7.4 050 / 71009.0 5.4 12.0
2019-May-15 00:00N 42°18' E 010°30'2222.4 030 / 411014.0
2019-May-14 23:00N 42°36' E 010°12'1811.2 050 / 251013.0 5.4 15.0
2019-May-14 21:24N 42°53' E 010°03'614.4
2019-May-14 21:00N 42°58' E 010°04'4284.3
2019-May-14 21:00N 42°54' E 010°06'1225.0 100 / 151013.0 5.4 15.0
2019-May-14 20:30N 43°06' E 010°06'816.1
2019-May-14 20:00N 43°14' E 010°08'816.2
2019-May-14 19:30N 43°22' E 010°10'816.0
2019-May-14 19:00N 43°30' E 010°11'510.2
2019-May-14 18:30N 43°32' E 010°17'1 1.5
2019-May-14 17:58N 43°33' E 010°18'0 0.0
2019-May-14 17:28N 43°33' E 010°18'8951865.1
2019-May-14 17:00N 43°36' W 010°18'89543553.4 080 / 231015.010.8 17.3 17.2
2019-May-14 16:58N 43°33' E 010°18'0 0.0
2019-May-14 16:28N 43°33' E 010°18'3 5.7
2019-May-14 16:00N 43°36' E 010°18'3135.7 080 / 211015.010.8 18.3 17.2
2019-May-14 15:58N 43°33' E 010°18'0 0.0
2019-May-14 15:28N 43°33' E 010°18'0 0.0
2019-May-14 14:58N 43°33' E 010°18'0 0.0
2019-May-14 14:28N 43°33' E 010°18'0 0.0
2019-May-14 13:58N 43°33' E 010°18'0 0.0
2019-May-14 13:28N 43°33' E 010°18'0 0.0
2019-May-14 12:58N 43°33' E 010°18'0 0.0
2019-May-14 12:28N 43°33' E 010°18'3 5.7
2019-May-14 12:00N 43°36' E 010°18'3137.6 030 / 121016.0
2019-May-14 11:58N 43°33' E 010°18'0 0.0
2019-May-14 11:28N 43°33' E 010°18'3 5.7
2019-May-14 11:00N 43°36' E 010°18'3137.6 080 / 181013.0 5.4 19.0
2019-May-14 10:58N 43°33' E 010°18'0 0.0
2019-May-14 10:28N 43°33' E 010°18'0 0.0
2019-May-14 09:58N 43°33' E 010°18'0 0.0
2019-May-14 09:28N 43°33' E 010°18'0 0.0
2019-May-14 08:58N 43°33' E 010°18'0 0.0
2019-May-14 08:28N 43°33' E 010°18'0 0.0
2019-May-14 07:58N 43°33' E 010°18'0 0.0
2019-May-14 07:28N 43°33' E 010°18'0 0.0
2019-May-14 06:58N 43°33' E 010°18'0 0.0
2019-May-14 06:28N 43°33' E 010°18'0 0.0
2019-May-14 05:58N 43°33' E 010°18'0 0.0
2019-May-14 05:28N 43°33' E 010°18'0 0.0
2019-May-14 04:59N 43°33' E 010°18'2 3.9
2019-May-14 04:30N 43°32' E 010°16'4 7.9
2019-May-14 04:01N 43°30' E 010°11'510.9
2019-May-14 03:30N 43°30' E 010°04'713.2
2019-May-14 03:01N 43°31' E 009°55'713.7
2019-May-14 02:30N 43°31' E 009°45'713.8
2019-May-14 02:00N 43°31' E 009°36'713.9
2019-May-14 01:31N 43°31' E 009°26'714.4
2019-May-14 01:01N 43°31' E 009°16'714.2
2019-May-14 00:31N 43°30' E 009°07'714.3
2019-May-14 00:01N 43°30' E 008°57'2119.0
2019-May-14 00:00N 43°30' E 008°54'510.6 050 / 151017.0
2019-May-13 23:30N 43°30' E 008°47'714.4
2019-May-13 23:00N 43°30' E 008°37'5319.2
2019-May-13 23:00N 43°30' E 008°30'2 4.4 080 / 251014.0 5.4 17.0
2019-May-13 22:30N 43°29' E 008°27'714.6
2019-May-13 22:00N 43°29' E 008°17'714.4
2019-May-13 21:30N 43°29' E 008°07'815.1
2019-May-13 21:00N 43°29' E 007°57'714.9
2019-May-13 20:30N 43°28' E 007°47'714.8
2019-May-13 20:00N 43°28' E 007°36'5304.3
2019-May-13 20:00N 43°30' E 007°30'4 7.2 330 / 351016.0 5.4 18.0
2019-May-13 19:30N 43°28' E 007°26'714.9
2019-May-13 19:00N 43°28' E 007°16'715.0
2019-May-13 18:30N 43°28' E 007°05'5 9.9
2019-May-13 18:00N 43°32' E 007°01'0 0.6
2019-May-13 17:30N 43°32' E 007°01'0 0.0
2019-May-13 17:00N 43°32' E 007°01'0 0.0
2019-May-13 16:30N 43°32' E 007°01'0 0.0
2019-May-13 16:00N 43°32' E 007°01'0 0.0
2019-May-13 15:30N 43°32' E 007°01'0 0.0
2019-May-13 15:00N 43°32' E 007°01'0 0.0
2019-May-13 14:30N 43°32' E 007°01'0 0.0
2019-May-13 14:00N 43°32' E 007°01'0 0.0
2019-May-13 13:30N 43°32' E 007°01'0 0.0
2019-May-13 13:00N 43°32' E 007°01'0 0.0
2019-May-13 12:30N 43°32' E 007°01'0 0.0
2019-May-13 12:00N 43°32' E 007°01'2227.4
2019-May-13 12:00N 43°30' E 007°00'2 4.1 200 / 201017.0
2019-May-13 11:30N 43°32' E 007°01'0 0.2
2019-May-13 11:00N 43°32' E 007°01'0 0.1
2019-May-13 10:30N 43°32' E 007°01'0 0.1
2019-May-13 10:00N 43°32' E 007°01'2220.9
2019-May-13 10:00N 43°30' E 007°00'2 4.0 180 / 121014.0 5.4 20.0
2019-May-13 09:30N 43°32' E 007°01'0 0.0
2019-May-13 08:57N 43°32' E 007°01'0 0.0
2019-May-13 08:30N 43°32' E 007°01'1 1.4
2019-May-13 08:00N 43°31' E 007°01'714.2
2019-May-13 07:31N 43°24' E 006°57'1020.7
2019-May-13 07:00N 43°15' E 006°52'1020.4
2019-May-13 06:30N 43°05' E 006°47'1020.7
2019-May-13 06:00N 42°58' E 006°37'6320.9
2019-May-13 03:00N 42°48' E 005°12'7518.7 350 / 501016.010.8 13.3 13.0
2019-May-12 23:00N 42°24' E 003°36'4615.2 350 / 551016.0 5.4 16.0
2019-May-12 20:00N 41°42' E 003°12'1370.1 1018.0 5.4 15.0
2019-May-12 19:49N 41°31' E 003°04'721.8
2019-May-12 19:30N 41°26' E 002°57'1121.3
2019-May-12 19:00N 41°20' E 002°46'1122.1
2019-May-12 18:30N 41°12' E 002°36'2922.6
2019-May-12 17:15N 41°04' E 001°59'623.4
2019-May-12 17:00N 41°04' E 001°52'1223.7
2019-May-12 16:30N 41°04' E 001°36'18 4.1
2019-May-12 12:00N 41°06' E 001°12'0 0.0 250 / 101022.0
2019-May-12 10:00N 41°06' E 001°12'10954.3 290 / 181021.0 5.4 20.0
2019-May-12 08:00N 41°06' W 001°12'0 0.0 300 / 201022.0 5.4 18.0
2019-May-12 05:00N 41°06' W 001°12'12625.2 330 / 181023.010.8 17.5 17.8
2019-May-12 00:00N 40°36' E 001°30'1312.8 280 / 281024.0
2019-May-11 23:00N 40°24' E 001°36'4615.3 100 / 121021.0 5.4 17.0
2019-May-11 20:00N 39°42' E 002°00'1711.6 080 / 201018.0 5.4 18.0
2019-May-11 18:32N 39°30' E 002°15'115.0
2019-May-11 18:26N 39°28' E 002°16'615.0
2019-May-11 18:00N 39°25' E 002°23'713.5
2019-May-11 17:31N 39°25' E 002°32'815.0
2019-May-11 17:00N 39°31' E 002°38'2 4.5
2019-May-11 16:30N 39°33' E 002°38'0 0.2
2019-May-11 15:55N 39°33' E 002°38'0 0.0
2019-May-11 15:25N 39°33' E 002°38'0 0.0
2019-May-11 14:55N 39°33' E 002°38'0 0.0
2019-May-11 14:25N 39°33' E 002°38'0 0.0
2019-May-11 13:55N 39°33' E 002°38'0 0.0
2019-May-11 13:25N 39°33' E 002°38'0 0.0
2019-May-11 12:55N 39°33' E 002°38'0 0.0
2019-May-11 12:25N 39°33' E 002°38'3 7.2
2019-May-11 12:00N 39°30' E 002°36'338.9 210 / 141018.0
2019-May-11 11:55N 39°33' E 002°38'0 0.0
2019-May-11 11:25N 39°33' E 002°38'0 0.0
2019-May-11 10:55N 39°33' E 002°38'0 0.0
2019-May-11 10:25N 39°33' E 002°38'3 7.2
2019-May-11 10:00N 39°30' E 002°36'338.9 200 / 91018.0 5.4 22.0
2019-May-11 09:55N 39°33' E 002°38'0 0.0
2019-May-11 09:25N 39°33' E 002°38'0 0.0
2019-May-11 08:55N 39°33' E 002°38'0 0.0
2019-May-11 08:25N 39°33' E 002°38'3 7.3
2019-May-11 08:00N 39°30' E 002°36'339.1 020 / 71017.0 5.4 21.0
2019-May-11 07:55N 39°33' E 002°38'0 0.4
2019-May-11 07:30N 39°33' E 002°38'1 2.8
2019-May-11 07:00N 39°32' E 002°39'713.1
2019-May-11 06:30N 39°26' E 002°35'714.8
2019-May-11 06:00N 39°20' E 002°29'714.6
2019-May-11 05:30N 39°14' E 002°24'815.7
2019-May-11 05:00N 39°07' E 002°19'1115.9
2019-May-11 04:17N 38°58' E 002°11'412.9
2019-May-11 04:00N 38°54' E 002°12'4100.7 190 / 71016.010.8 18.5 18.7
2019-May-11 03:57N 38°53' E 002°07'916.2
2019-May-11 03:24N 38°46' E 002°01'4016.6
2019-May-11 01:00N 38°18' E 001°24'3517.6 180 / 141015.0
2019-May-10 23:00N 38°06' E 000°42'4514.9 350 / 71016.0 5.4 19.0
2019-May-10 20:00N 37°42' W 000°06'   200 / 101015.0 5.4 20.0

Dump ship's entire track history